Terminal Aerodrome Forecast
Issued by NWS

Home | Current Version | Previous Version | Text Only | Print | Product List | Glossary On
Versions: 1 2 3 4 5 6 7 8 9 10 11 12 13 14 15
000
FTUS45 KFGZ 240500
TAFSEZ
TAF
KSEZ 240520Z 2406/2506 06009KT P6SM FEW200
     FM241800 01012G22KT P6SM SKC
     FM250100 05012G20KT P6SM SKC=

USA.gov is the U.S. government's official web portal to all federal, state and local government web resources and services.